createdAt,value
2019-03-30T00:01:27.154Z,5.30
2019-03-30T00:03:54.902Z,5.30
2019-03-30T00:06:21.556Z,5.40
2019-03-30T00:08:50.218Z,5.60
2019-03-30T00:11:19.895Z,5.60
2019-03-30T00:13:46.342Z,5.60
2019-03-30T00:16:18.279Z,5.40
2019-03-30T00:18:45.061Z,5.20
2019-03-30T00:21:11.991Z,5.00
2019-03-30T00:23:39.219Z,4.80
2019-03-30T00:26:05.669Z,4.70
2019-03-30T00:28:32.363Z,4.60
2019-03-30T00:30:58.850Z,4.60
2019-03-30T00:33:25.490Z,4.50
2019-03-30T00:35:52.741Z,4.40
2019-03-30T00:38:19.595Z,4.30
2019-03-30T00:40:50.818Z,4.30
2019-03-30T00:43:17.752Z,4.10
2019-03-30T00:45:44.560Z,4.10
2019-03-30T00:48:11.253Z,4.00
2019-03-30T00:50:37.874Z,3.90
2019-03-30T00:53:04.538Z,3.90
2019-03-30T00:55:31.082Z,3.90
2019-03-30T00:57:57.853Z,3.80
2019-03-30T01:00:24.652Z,3.80
2019-03-30T01:02:52.206Z,3.80
2019-03-30T01:05:20.792Z,3.70
2019-03-30T01:07:47.606Z,3.70
2019-03-30T01:10:14.444Z,4.00
2019-03-30T01:12:41.065Z,4.10
2019-03-30T01:15:08.004Z,4.10
2019-03-30T01:17:34.911Z,4.10
2019-03-30T01:20:03.428Z,4.30
2019-03-30T01:22:30.589Z,3.90
2019-03-30T01:24:57.390Z,3.80
2019-03-30T01:27:24.803Z,3.90
2019-03-30T01:29:51.220Z,4.90
2019-03-30T01:32:18.631Z,4.20
2019-03-30T01:34:45.116Z,4.30
2019-03-30T01:37:12.746Z,4.40
2019-03-30T01:39:39.444Z,4.30
2019-03-30T01:42:07.038Z,4.20
2019-03-30T01:44:34.695Z,4.00
2019-03-30T01:47:02.121Z,3.80
2019-03-30T01:49:29.117Z,3.80
2019-03-30T01:52:00.325Z,3.80
2019-03-30T01:57:22.327Z,3.60
2019-03-30T02:00:09.224Z,3.60
2019-03-30T02:02:36.163Z,3.70
2019-03-30T02:05:07.909Z,3.80
2019-03-30T02:07:36.801Z,3.80
2019-03-30T02:10:06.082Z,3.80
2019-03-30T02:12:38.878Z,3.80
2019-03-30T02:17:59.583Z,3.90
2019-03-30T02:23:29.432Z,4.10
2019-03-30T02:25:56.607Z,4.20
2019-03-30T02:28:23.680Z,4.00
2019-03-30T02:30:52.350Z,3.90
2019-03-30T02:33:19.275Z,3.80
2019-03-30T02:35:47.749Z,4.10
2019-03-30T02:38:14.407Z,3.60
2019-03-30T02:40:41.088Z,3.40
2019-03-30T02:43:08.239Z,3.40
2019-03-30T02:45:34.896Z,3.60
2019-03-30T02:48:01.962Z,3.70
2019-03-30T02:50:28.733Z,3.70
2019-03-30T02:52:55.657Z,3.80
2019-03-30T02:55:22.590Z,3.70
2019-03-30T02:57:49.881Z,3.70
2019-03-30T03:00:17.937Z,3.80
2019-03-30T03:02:45.748Z,3.80
2019-03-30T03:05:13.156Z,3.90
2019-03-30T03:07:39.945Z,4.00
2019-03-30T03:10:07.543Z,3.90
2019-03-30T03:12:34.948Z,3.90
2019-03-30T03:15:01.721Z,4.00
2019-03-30T03:17:28.666Z,4.00
2019-03-30T03:19:57.581Z,4.00
2019-03-30T03:22:24.362Z,4.00
2019-03-30T03:24:52.218Z,4.70
2019-03-30T03:27:20.669Z,3.90
2019-03-30T03:29:49.039Z,3.90
2019-03-30T03:32:15.909Z,3.90
2019-03-30T03:34:43.460Z,3.90
2019-03-30T03:37:10.205Z,3.90
2019-03-30T03:39:36.927Z,4.00
2019-03-30T03:46:02.693Z,3.90
2019-03-30T03:48:29.864Z,3.90
2019-03-30T03:51:00.289Z,3.90
2019-03-30T03:53:27.408Z,4.30
2019-03-30T03:55:55.701Z,3.90
2019-03-30T03:58:25.667Z,3.90
2019-03-30T04:00:56.456Z,3.90
2019-03-30T04:03:24.969Z,3.90
2019-03-30T04:05:55.435Z,3.90
2019-03-30T04:08:25.151Z,3.90
2019-03-30T04:10:53.717Z,4.10
2019-03-30T04:13:24.080Z,4.10
2019-03-30T04:15:50.603Z,4.10
2019-03-30T04:18:17.463Z,4.00
2019-03-30T04:20:44.573Z,4.10
2019-03-30T04:23:11.198Z,4.00
2019-03-30T04:25:38.067Z,3.90
2019-03-30T04:28:05.320Z,4.00
2019-03-30T04:30:31.821Z,3.90
2019-03-30T04:32:58.275Z,4.00
2019-03-30T04:35:25.075Z,3.90
2019-03-30T04:37:52.010Z,4.00
2019-03-30T04:40:18.829Z,4.00
2019-03-30T04:42:45.600Z,3.90
2019-03-30T04:45:13.350Z,3.80
2019-03-30T04:47:41.874Z,3.70
2019-03-30T04:50:08.316Z,3.60
2019-03-30T04:52:35.283Z,3.40
2019-03-30T04:55:06.147Z,3.30
2019-03-30T05:00:21.821Z,3.20
2019-03-30T05:02:48.922Z,3.10
2019-03-30T05:05:15.836Z,3.00
2019-03-30T05:07:42.866Z,3.10
2019-03-30T05:10:09.680Z,3.10
2019-03-30T05:12:36.404Z,3.10
2019-03-30T05:15:04.660Z,3.00
2019-03-30T05:17:46.432Z,3.00
2019-03-30T05:20:01.564Z,3.10
2019-03-30T05:22:28.206Z,3.10
2019-03-30T05:24:54.924Z,3.10
2019-03-30T05:27:22.183Z,3.40
2019-03-30T05:29:50.010Z,3.20
2019-03-30T05:32:16.647Z,3.10
2019-03-30T05:34:43.143Z,3.10
2019-03-30T05:37:09.719Z,3.20
2019-03-30T05:39:36.814Z,3.30
2019-03-30T05:42:03.455Z,3.40
2019-03-30T05:44:31.279Z,3.30
2019-03-30T05:46:57.902Z,3.40
2019-03-30T05:49:24.339Z,3.50
2019-03-30T05:51:50.757Z,3.60
2019-03-30T05:54:17.636Z,2.50
2019-03-30T05:56:44.233Z,3.80
2019-03-30T05:59:10.857Z,3.70
2019-03-30T06:01:37.413Z,4.20
2019-03-30T06:04:03.872Z,3.70
2019-03-30T06:06:30.409Z,3.80
2019-03-30T06:08:57.937Z,3.80
2019-03-30T06:11:24.780Z,3.80
2019-03-30T06:13:51.746Z,3.80
2019-03-30T06:16:18.395Z,3.90
2019-03-30T06:18:46.703Z,3.90
2019-03-30T06:21:13.146Z,4.00
2019-03-30T06:23:39.780Z,4.10
2019-03-30T06:26:08.120Z,4.20
2019-03-30T06:28:35.283Z,4.30
2019-03-30T06:31:02.785Z,4.40
2019-03-30T06:33:30.195Z,4.50
2019-03-30T06:35:57.447Z,4.70
2019-03-30T06:38:40.132Z,4.90
2019-03-30T06:41:10.375Z,5.00
2019-03-30T06:43:37.079Z,5.10
2019-03-30T06:46:04.660Z,6.10
2019-03-30T06:51:22.638Z,5.60
2019-03-30T06:56:37.687Z,5.80
2019-03-30T06:59:08.219Z,6.00
2019-03-30T07:01:39.533Z,6.20
2019-03-30T07:04:11.395Z,6.20
2019-03-30T07:06:46.761Z,6.30
2019-03-30T07:09:22.173Z,6.50
2019-03-30T07:11:50.312Z,6.70
2019-03-30T07:14:16.958Z,6.80
2019-03-30T07:16:47.501Z,6.90
2019-03-30T07:19:19.466Z,7.00
2019-03-30T07:21:55.891Z,7.30
2019-03-30T07:24:45.630Z,7.30
2019-03-30T07:27:12.042Z,7.50
2019-03-30T07:29:39.462Z,7.60
2019-03-30T07:32:07.101Z,7.80
2019-03-30T07:34:35.408Z,7.90
2019-03-30T07:37:03.080Z,8.90
2019-03-30T07:39:30.116Z,8.20
2019-03-30T07:41:57.276Z,8.40
2019-03-30T07:44:24.817Z,8.40
2019-03-30T07:46:51.510Z,8.70
2019-03-30T07:49:18.657Z,9.10
2019-03-30T07:51:47.798Z,9.40
2019-03-30T07:54:15.193Z,9.80
2019-03-30T07:59:37.197Z,9.30
2019-03-30T08:02:10.748Z,9.40
2019-03-30T08:07:33.899Z,9.90
2019-03-30T08:10:02.237Z,10.10
2019-03-30T08:12:33.163Z,10.20
2019-03-30T08:15:00.799Z,10.40
2019-03-30T08:17:28.532Z,10.50
2019-03-30T08:20:16.086Z,10.70
2019-03-30T08:22:49.158Z,10.80
2019-03-30T08:25:21.927Z,11.10
2019-03-30T08:27:49.953Z,11.20
2019-03-30T08:33:13.656Z,11.50
2019-03-30T08:35:42.374Z,11.60
2019-03-30T08:38:23.311Z,12.10
2019-03-30T08:40:50.079Z,11.80
2019-03-30T08:43:16.607Z,11.90
2019-03-30T08:45:43.623Z,12.00
2019-03-30T08:48:11.261Z,12.00
2019-03-30T08:50:37.694Z,12.10
2019-03-30T08:53:05.111Z,12.30
2019-03-30T08:55:32.289Z,12.40
2019-03-30T08:57:58.770Z,12.50
2019-03-30T09:00:36.864Z,12.70
2019-03-30T09:03:04.164Z,12.80
2019-03-30T09:05:31.543Z,12.90
2019-03-30T09:07:58.569Z,13.00
2019-03-30T09:10:33.269Z,13.30
2019-03-30T09:13:00.905Z,13.40
2019-03-30T09:15:28.123Z,13.70
2019-03-30T09:17:58.673Z,14.30
2019-03-30T09:20:26.526Z,15.80
2019-03-30T09:22:53.598Z,17.60
2019-03-30T09:25:21.122Z,18.30
2019-03-30T09:27:47.736Z,19.30
2019-03-30T09:30:15.343Z,19.50
2019-03-30T09:32:45.021Z,19.80
2019-03-30T09:35:13.409Z,20.50
2019-03-30T09:37:40.207Z,20.70
2019-03-30T09:40:07.454Z,20.30
2019-03-30T09:42:34.478Z,20.60
2019-03-30T09:45:01.123Z,19.60
2019-03-30T09:47:27.690Z,20.10
2019-03-30T09:50:11.851Z,19.90
2019-03-30T09:52:38.763Z,19.10
2019-03-30T09:55:06.153Z,19.70
2019-03-30T09:57:32.952Z,19.70
2019-03-30T10:00:00.378Z,20.40
2019-03-30T10:02:26.932Z,20.60
2019-03-30T10:04:54.233Z,20.80
2019-03-30T10:07:22.516Z,20.80
2019-03-30T10:09:49.025Z,21.10
2019-03-30T10:12:15.676Z,20.20
2019-03-30T10:14:42.581Z,20.10
2019-03-30T10:17:09.283Z,20.30
2019-03-30T10:19:36.317Z,20.80
2019-03-30T10:22:03.600Z,21.80
2019-03-30T10:24:37.988Z,22.90
2019-03-30T10:27:00.002Z,22.70
2019-03-30T10:29:27.955Z,22.40
2019-03-30T10:31:54.358Z,23.00
2019-03-30T10:34:20.836Z,23.60
2019-03-30T10:36:48.508Z,23.90
2019-03-30T10:39:15.599Z,23.00
2019-03-30T10:41:52.995Z,22.80
2019-03-30T10:44:21.355Z,22.50
2019-03-30T10:46:48.348Z,21.60
2019-03-30T10:49:14.949Z,21.70
2019-03-30T10:51:41.470Z,21.80
2019-03-30T10:54:10.370Z,21.30
2019-03-30T10:56:36.982Z,21.80
2019-03-30T10:59:04.255Z,23.20
2019-03-30T11:01:30.784Z,23.40
2019-03-30T11:03:57.536Z,24.60
2019-03-30T11:06:24.374Z,25.10
2019-03-30T11:08:53.386Z,23.90
2019-03-30T11:11:20.049Z,23.60
2019-03-30T11:13:46.638Z,23.10
2019-03-30T11:16:13.659Z,22.20
2019-03-30T11:18:40.402Z,21.80
2019-03-30T11:21:06.878Z,21.30
2019-03-30T11:23:33.608Z,20.60
2019-03-30T11:26:02.071Z,21.20
2019-03-30T11:28:28.924Z,22.50
2019-03-30T11:30:55.333Z,20.80
2019-03-30T11:33:24.195Z,20.50
2019-03-30T11:35:51.188Z,19.20
2019-03-30T11:38:20.079Z,18.40
2019-03-30T11:40:50.173Z,19.00
2019-03-30T11:43:16.612Z,20.00
2019-03-30T11:45:44.067Z,20.20
2019-03-30T11:48:10.480Z,20.90
2019-03-30T11:50:37.216Z,21.10
2019-03-30T11:53:05.775Z,20.60
2019-03-30T11:55:35.475Z,19.70
2019-03-30T11:58:02.188Z,19.50
2019-03-30T12:00:28.813Z,19.90
2019-03-30T12:02:57.348Z,20.00
2019-03-30T12:05:24.788Z,19.40
2019-03-30T12:07:53.763Z,20.30
2019-03-30T12:10:27.091Z,21.20
2019-03-30T12:12:55.280Z,21.70
2019-03-30T12:15:26.248Z,21.00
2019-03-30T12:17:54.742Z,20.20
2019-03-30T12:20:21.274Z,20.10
2019-03-30T12:22:47.947Z,19.30
2019-03-30T12:25:16.369Z,20.60
2019-03-30T12:27:42.810Z,21.10
2019-03-30T12:30:10.207Z,21.10
2019-03-30T12:32:36.944Z,19.90
2019-03-30T12:35:06.154Z,20.70
2019-03-30T12:37:34.772Z,20.80
2019-03-30T12:40:04.746Z,20.90
2019-03-30T12:42:31.344Z,21.00
2019-03-30T12:44:58.907Z,20.80
2019-03-30T12:47:25.397Z,21.00
2019-03-30T12:49:53.364Z,21.00
2019-03-30T12:52:20.018Z,21.20
2019-03-30T12:54:46.715Z,21.20
2019-03-30T12:57:13.386Z,21.40
2019-03-30T12:59:41.292Z,22.20
2019-03-30T13:02:07.963Z,22.10
2019-03-30T13:04:34.677Z,22.50
2019-03-30T13:07:01.808Z,22.10
2019-03-30T13:09:28.598Z,20.50
2019-03-30T13:11:55.478Z,20.80
2019-03-30T13:14:22.240Z,21.10
2019-03-30T13:16:49.613Z,21.00
2019-03-30T13:19:16.327Z,22.00
2019-03-30T13:21:52.497Z,21.60
2019-03-30T13:24:12.876Z,22.00
2019-03-30T13:26:39.709Z,22.50
2019-03-30T13:29:06.509Z,22.50
2019-03-30T13:31:34.189Z,23.20
2019-03-30T13:34:01.330Z,23.40
2019-03-30T13:36:39.723Z,23.30
2019-03-30T13:39:07.503Z,22.50
2019-03-30T13:41:37.950Z,23.60
2019-03-30T13:44:07.757Z,23.30
2019-03-30T13:46:35.808Z,23.50
2019-03-30T13:49:02.819Z,23.40
2019-03-30T13:51:29.488Z,22.80
2019-03-30T13:53:58.458Z,22.70
2019-03-30T13:56:26.803Z,22.20
2019-03-30T13:58:53.340Z,21.70
2019-03-30T14:01:24.119Z,20.90
2019-03-30T14:03:51.067Z,21.30
2019-03-30T14:06:17.562Z,21.40
2019-03-30T14:08:45.395Z,20.90
2019-03-30T14:11:12.075Z,19.90
2019-03-30T14:13:38.480Z,19.60
2019-03-30T14:16:05.296Z,20.00
2019-03-30T14:18:32.233Z,19.70
2019-03-30T14:20:58.749Z,19.70
2019-03-30T14:23:28.995Z,21.00
2019-03-30T14:25:55.488Z,20.60
2019-03-30T14:28:22.977Z,20.50
2019-03-30T14:30:50.069Z,21.40
2019-03-30T14:33:18.717Z,21.60
2019-03-30T14:35:45.636Z,20.60
2019-03-30T14:38:13.475Z,20.10
2019-03-30T14:40:40.110Z,21.10
2019-03-30T14:43:07.133Z,21.50
2019-03-30T14:45:33.637Z,21.90
2019-03-30T14:48:00.188Z,22.30
2019-03-30T14:50:27.343Z,22.60
2019-03-30T14:52:54.088Z,22.40
2019-03-30T14:55:20.581Z,22.10
2019-03-30T14:57:47.463Z,21.10
2019-03-30T15:00:14.659Z,21.20
2019-03-30T15:02:42.528Z,20.90
2019-03-30T15:05:16.968Z,20.80
2019-03-30T15:07:43.865Z,21.00
2019-03-30T15:10:11.418Z,20.10
2019-03-30T15:12:38.068Z,19.70
2019-03-30T15:15:10.258Z,19.40
2019-03-30T15:17:40.416Z,18.90
2019-03-30T15:20:10.387Z,18.60
2019-03-30T15:22:37.736Z,18.20
2019-03-30T15:25:07.101Z,18.60
2019-03-30T15:27:37.839Z,19.60
2019-03-30T15:30:06.485Z,19.90
2019-03-30T15:32:33.186Z,20.60
2019-03-30T15:35:06.496Z,20.90
2019-03-30T15:37:51.331Z,20.60
2019-03-30T15:46:10.050Z,21.30
2019-03-30T15:48:39.232Z,20.70
2019-03-30T15:51:06.179Z,21.00
2019-03-30T15:53:35.398Z,21.00
2019-03-30T15:56:02.932Z,20.80
2019-03-30T15:58:31.238Z,20.90
2019-03-30T16:01:09.520Z,20.70
2019-03-30T16:03:36.189Z,20.90
2019-03-30T16:06:03.762Z,20.80
2019-03-30T16:08:30.277Z,20.80
2019-03-30T16:10:57.245Z,20.40
2019-03-30T16:13:25.790Z,20.00
2019-03-30T16:15:52.536Z,20.70
2019-03-30T16:18:23.653Z,19.50
2019-03-30T16:20:50.447Z,19.40
2019-03-30T16:23:18.007Z,19.40
2019-03-30T16:25:44.904Z,19.60
2019-03-30T16:28:13.080Z,19.80
2019-03-30T16:30:40.096Z,19.80
2019-03-30T16:33:06.711Z,20.80
2019-03-30T16:35:45.577Z,19.40
2019-03-30T16:38:12.772Z,19.00
2019-03-30T16:40:39.621Z,18.60
2019-03-30T16:43:08.333Z,18.70
2019-03-30T16:45:35.567Z,18.60
2019-03-30T16:48:02.729Z,18.30
2019-03-30T16:50:29.636Z,18.10
2019-03-30T16:52:59.348Z,17.90
2019-03-30T16:55:27.106Z,17.60
2019-03-30T16:57:53.646Z,18.00
2019-03-30T17:00:24.119Z,17.30
2019-03-30T17:02:53.982Z,17.20
2019-03-30T17:05:20.800Z,16.70
2019-03-30T17:07:47.561Z,16.90
2019-03-30T17:10:14.568Z,16.10
2019-03-30T17:12:48.023Z,15.80
2019-03-30T17:15:14.759Z,15.60
2019-03-30T17:17:42.260Z,15.60
2019-03-30T17:20:10.209Z,15.40
2019-03-30T17:22:37.125Z,15.40
2019-03-30T17:25:06.713Z,15.30
2019-03-30T17:27:33.520Z,15.10
2019-03-30T17:30:00.672Z,14.80
2019-03-30T17:32:27.407Z,14.70
2019-03-30T17:34:54.735Z,14.50
2019-03-30T17:40:10.719Z,14.20
2019-03-30T17:42:39.378Z,14.10
2019-03-30T17:45:08.551Z,14.00
2019-03-30T17:47:35.777Z,13.80
2019-03-30T17:50:06.027Z,13.70
2019-03-30T17:52:33.371Z,13.60
2019-03-30T17:55:00.371Z,13.50
2019-03-30T17:57:29.313Z,13.30
2019-03-30T18:00:01.507Z,12.80
2019-03-30T18:02:35.310Z,13.90
2019-03-30T18:05:03.893Z,13.00
2019-03-30T18:07:38.437Z,13.00
2019-03-30T18:10:11.991Z,12.90
2019-03-30T18:12:41.080Z,12.90
2019-03-30T18:15:08.827Z,12.80
2019-03-30T18:17:35.368Z,12.70
2019-03-30T18:20:03.507Z,12.70
2019-03-30T18:22:31.131Z,12.50
2019-03-30T18:25:02.464Z,12.80
2019-03-30T18:27:31.962Z,12.60
2019-03-30T18:29:59.690Z,12.60
2019-03-30T18:32:27.744Z,12.40
2019-03-30T18:34:56.380Z,13.20
2019-03-30T18:37:24.154Z,12.30
2019-03-30T18:39:51.922Z,12.80
2019-03-30T18:42:18.961Z,12.20
2019-03-30T18:44:45.747Z,12.30
2019-03-30T18:47:12.688Z,12.30
2019-03-30T18:49:42.572Z,12.40
2019-03-30T18:52:10.668Z,12.40
2019-03-30T18:54:37.771Z,12.30
2019-03-30T18:57:07.929Z,12.40
2019-03-30T18:59:34.792Z,12.30
2019-03-30T19:02:12.843Z,12.10
2019-03-30T19:04:42.236Z,11.90
2019-03-30T19:07:10.503Z,11.80
2019-03-30T19:09:38.224Z,11.70
2019-03-30T19:12:06.758Z,12.70
2019-03-30T19:14:33.328Z,11.50
2019-03-30T19:17:00.264Z,11.40
2019-03-30T19:19:27.178Z,11.30
2019-03-30T19:21:55.006Z,11.20
2019-03-30T19:24:21.695Z,11.40
2019-03-30T19:26:49.193Z,11.10
2019-03-30T19:29:17.114Z,11.00
2019-03-30T19:31:43.633Z,10.90
2019-03-30T19:34:10.366Z,10.80
2019-03-30T19:36:38.984Z,10.80
2019-03-30T19:39:07.336Z,10.80
2019-03-30T19:41:38.595Z,10.70
2019-03-30T19:44:05.073Z,10.80
2019-03-30T19:46:32.089Z,10.80
2019-03-30T19:48:59.733Z,10.90
2019-03-30T19:51:26.980Z,10.90
2019-03-30T19:53:53.890Z,10.80
2019-03-30T19:56:21.603Z,10.80
2019-03-30T19:58:51.278Z,10.70
2019-03-30T20:04:07.877Z,10.70
2019-03-30T20:12:13.182Z,10.20
2019-03-30T20:14:39.788Z,10.00
2019-03-30T20:17:07.699Z,10.00
2019-03-30T20:19:34.847Z,10.00
2019-03-30T20:22:02.681Z,10.00
2019-03-30T20:24:32.415Z,10.00
2019-03-30T20:27:00.090Z,10.00
2019-03-30T20:29:26.815Z,11.00
2019-03-30T20:34:48.927Z,10.20
2019-03-30T20:37:16.606Z,10.40
2019-03-30T20:39:43.478Z,10.50
2019-03-30T20:42:10.710Z,10.40
2019-03-30T20:47:28.850Z,10.40
2019-03-30T20:52:36.130Z,10.40
2019-03-30T20:55:04.807Z,10.40
2019-03-30T20:57:39.496Z,10.30
2019-03-30T21:00:09.574Z,11.40
2019-03-30T21:02:41.000Z,10.30
2019-03-30T21:05:08.610Z,10.20
2019-03-30T21:10:28.610Z,10.10
2019-03-30T21:12:56.670Z,10.00
2019-03-30T21:15:25.989Z,9.90
2019-03-30T21:17:53.590Z,10.10
2019-03-30T21:20:21.766Z,9.80
2019-03-30T21:22:50.276Z,9.80
2019-03-30T21:25:18.756Z,9.70
2019-03-30T21:27:45.697Z,10.30
2019-03-30T21:30:13.698Z,9.70
2019-03-30T21:32:48.813Z,9.60
2019-03-30T21:35:18.551Z,9.20
2019-03-30T21:38:01.001Z,8.60
2019-03-30T21:40:47.692Z,9.20
2019-03-30T21:43:14.453Z,9.10
2019-03-30T21:45:41.113Z,9.00
2019-03-30T21:48:09.639Z,9.00
2019-03-30T21:50:36.988Z,8.90
2019-03-30T21:53:04.038Z,8.80
2019-03-30T21:55:30.693Z,8.60
2019-03-30T21:57:57.926Z,8.60
2019-03-30T22:00:32.976Z,8.40
2019-03-30T22:03:05.798Z,8.40
2019-03-30T22:05:33.272Z,8.30
2019-03-30T22:08:07.665Z,8.30
2019-03-30T22:10:56.813Z,8.30
2019-03-30T22:16:20.096Z,8.20
2019-03-30T23:34:19.776Z,7.10
2019-03-30T23:36:53.965Z,6.90
